Time;durP1;ratioP1;P1;durP2;ratioP2;P2;SDS_P1;SDS_P2;PMS_P1;PMS_P2;Temp;Humidity;BMP_temperature;BMP_pressure;BME280_temperature;BME280_humidity;BME280_pressure;Samples;Min_cycle;Max_cycle;Signal;HPM_P1;HPM_P2
2023/04/15 00:02:17;;;;;;;10.60;4.28;;;;;;;10.10;66.32;100675.19;5034070;28;20049;-65
2023/04/15 00:04:45;;;;;;;;;;;;;;;10.13;66.16;100675.47;5034835;28;20065;-64
2023/04/15 00:07:13;;;;;;;9.02;3.80;;;;;;;10.09;65.89;100674.38;5032414;28;19921;-65
2023/04/15 00:09:41;;;;;;;10.85;4.07;;;;;;;10.07;65.95;100673.00;5033867;28;20117;-64
2023/04/15 00:12:09;;;;;;;10.85;4.15;;;;;;;10.02;66.23;100673.81;5033811;28;20110;-65
2023/04/15 00:14:37;;;;;;;14.70;4.18;;;;;;;9.96;66.54;100678.41;5034603;28;20124;-63
2023/04/15 00:17:06;;;;;;;12.13;4.07;;;;;;;9.94;66.60;100666.16;5036482;28;20041;-65
2023/04/15 00:19:33;;;;;;;11.45;4.00;;;;;;;9.94;66.84;100666.16;5073524;28;20068;-64
2023/04/15 00:22:01;;;;;;;14.45;4.50;;;;;;;9.94;66.40;100668.91;5052226;28;20052;-59
2023/04/15 00:24:30;;;;;;;10.68;4.15;;;;;;;9.95;66.49;100670.50;5072069;28;20120;-59
2023/04/15 00:26:58;;;;;;;9.90;3.70;;;;;;;9.93;66.92;100662.63;5055933;28;20072;-63
2023/04/15 00:29:26;;;;;;;12.40;4.28;;;;;;;9.93;66.79;100664.50;5050651;28;20084;-61
2023/04/15 00:31:54;;;;;;;10.73;4.32;;;;;;;9.95;67.11;100671.31;5066990;28;20060;-65
2023/04/15 00:34:22;;;;;;;14.25;4.70;;;;;;;9.98;67.18;100662.66;5056991;28;20486;-65
2023/04/15 00:36:51;;;;;;;12.68;4.28;;;;;;;9.98;67.10;100669.97;5038461;28;20060;-67
2023/04/15 00:39:19;;;;;;;9.75;3.90;;;;;;;9.98;67.02;100664.53;5036837;28;20132;-65
2023/04/15 00:41:48;;;;;;;11.15;3.95;;;;;;;9.96;67.11;100672.16;5035758;28;20065;-65
2023/04/15 00:44:17;;;;;;;12.48;4.80;;;;;;;9.89;67.49;100671.59;5032801;28;20057;-65
2023/04/15 00:46:47;;;;;;;10.82;4.13;;;;;;;9.85;67.85;100670.50;5035940;28;20494;-66
2023/04/15 00:49:15;;;;;;;11.30;4.70;;;;;;;9.80;68.20;100679.44;5019448;28;20051;-66
2023/04/15 00:51:42;;;;;;;11.98;4.35;;;;;;;9.75;68.56;100674.00;5038849;28;20373;-65
2023/04/15 00:54:11;;;;;;;9.80;3.75;;;;;;;9.69;69.02;100681.31;5033295;28;20084;-65
2023/04/15 00:56:39;;;;;;;9.63;4.30;;;;;;;9.69;68.78;100684.03;5033623;28;20041;-64
2023/04/15 00:59:08;;;;;;;11.00;4.10;;;;;;;9.64;68.91;100680.47;5031980;28;20452;-64
2023/04/15 01:01:37;;;;;;;11.98;4.45;;;;;;;9.61;69.39;100676.38;5029890;28;20589;-65
2023/04/15 01:04:05;;;;;;;10.98;4.82;;;;;;;9.58;69.12;100680.44;5033584;28;20049;-65
2023/04/15 01:06:33;;;;;;;13.13;4.63;;;;;;;9.58;69.67;100676.91;5031746;28;20511;-64
2023/04/15 01:09:01;;;;;;;11.15;4.22;;;;;;;9.60;69.97;100680.19;5015819;28;20042;-65
2023/04/15 01:11:30;;;;;;;8.82;4.28;;;;;;;9.56;69.84;100674.44;5032712;28;20046;-65
2023/04/15 01:13:58;;;;;;;11.43;4.45;;;;;;;9.54;70.19;100670.34;5020233;28;20047;-64
2023/04/15 01:16:27;;;;;;;11.82;4.40;;;;;;;9.57;70.18;100673.38;5033577;28;20477;-64
2023/04/15 01:18:55;;;;;;;11.30;4.80;;;;;;;9.58;69.92;100674.19;5040314;28;20042;-65
2023/04/15 01:21:23;;;;;;;11.45;4.47;;;;;;;9.56;70.38;100670.91;5037622;28;20107;-65
2023/04/15 01:23:53;;;;;;;11.38;4.53;;;;;;;9.52;70.17;100672.50;5037178;28;20049;-65
2023/04/15 01:26:22;;;;;;;8.63;4.10;;;;;;;9.47;70.56;100667.06;5019679;28;20136;-65
2023/04/15 01:28:50;;;;;;;10.55;4.43;;;;;;;9.51;70.64;100673.63;5018433;28;20115;-66
2023/04/15 01:31:17;;;;;;;12.45;4.63;;;;;;;9.51;70.96;100673.63;5019433;28;20053;-65
2023/04/15 01:33:46;;;;;;;11.07;4.60;;;;;;;9.52;70.68;100669.78;5035970;28;20049;-65
2023/04/15 01:36:34;;;;;;;13.20;4.90;;;;;;;9.51;70.44;100668.97;5034209;28;20052;-66
2023/04/15 01:39:01;;;;;;;8.27;4.20;;;;;;;9.43;71.27;100668.66;5056743;28;20041;-65
2023/04/15 01:41:29;;;;;;;10.98;4.45;;;;;;;9.35;71.76;100667.25;5039295;28;20136;-65
2023/04/15 01:43:58;;;;;;;8.98;4.15;;;;;;;9.33;71.62;100663.97;5054412;28;20045;-66
2023/04/15 01:46:28;;;;;;;9.68;4.47;;;;;;;9.29;71.91;100663.72;5029261;28;20048;-65
2023/04/15 01:48:59;;;;;;;8.85;4.30;;;;;;;9.32;72.32;100667.78;5055443;28;20052;-65
2023/04/15 01:51:29;;;;;;;11.70;4.93;;;;;;;9.29;72.20;100674.59;5033919;28;20045;-65
2023/04/15 01:53:58;;;;;;;11.00;4.20;;;;;;;9.21;72.66;100669.63;5035504;28;20409;-65
2023/04/15 01:56:27;;;;;;;9.73;4.20;;;;;;;9.17;73.37;100665.81;5017499;28;20041;-63
2023/04/15 01:58:55;;;;;;;11.05;4.72;;;;;;;9.20;73.41;100675.34;5034626;28;20056;-65
2023/04/15 02:01:24;;;;;;;12.40;4.72;;;;;;;9.20;73.53;100667.19;5069142;28;20374;-64
2023/04/15 02:03:54;;;;;;;12.80;4.28;;;;;;;9.19;73.60;100674.53;5035486;28;20378;-65
2023/04/15 02:06:23;;;;;;;9.60;4.47;;;;;;;9.19;73.60;100669.09;5036570;28;20041;-66
2023/04/15 02:08:52;;;;;;;11.82;4.40;;;;;;;9.16;73.81;100667.72;5051544;28;20484;-64
2023/04/15 02:11:22;;;;;;;10.40;4.50;;;;;;;9.14;73.98;100671.78;5037855;28;20052;-66
2023/04/15 02:13:51;;;;;;;6.90;4.25;;;;;;;9.12;74.32;100668.50;5035120;28;20060;-66
2023/04/15 02:16:20;;;;;;;8.73;4.00;;;;;;;9.12;74.84;100673.94;5045627;28;20371;-65
2023/04/15 02:18:50;;;;;;;8.73;4.00;;;;;;;9.11;75.05;100672.28;5054273;28;20382;-65
2023/04/15 02:21:19;;;;;;;7.75;4.18;;;;;;;9.01;75.40;100674.94;5038106;28;20516;-65
2023/04/15 02:23:48;;;;;;;9.52;4.95;;;;;;;8.95;75.59;100677.63;5038044;28;20054;-66
2023/04/15 02:26:17;;;;;;;11.10;4.50;;;;;;;8.97;76.42;100677.34;5041202;28;20052;-66
2023/04/15 02:28:47;;;;;;;7.53;4.30;;;;;;;9.00;76.13;100676.03;5038674;28;20053;-65
2023/04/15 02:31:16;;;;;;;10.98;4.93;;;;;;;9.06;75.79;100677.69;5033844;28;20509;-65
2023/04/15 02:33:45;;;;;;;7.35;4.25;;;;;;;9.07;75.69;100682.06;5034773;28;20052;-65
2023/04/15 02:36:14;;;;;;;12.63;4.90;;;;;;;9.11;75.84;100691.31;5034462;28;20057;-66
2023/04/15 02:38:44;;;;;;;10.75;4.97;;;;;;;9.11;75.42;100683.16;5054472;28;20174;-65
2023/04/15 02:41:16;;;;;;;8.05;4.43;;;;;;;9.08;76.33;100691.84;5034634;28;20408;-65
2023/04/15 02:43:48;;;;;;;9.20;4.28;;;;;;;9.08;76.25;100697.28;5025855;28;20036;-65
2023/04/15 02:46:17;;;;;;;9.10;4.45;;;;;;;9.09;76.08;100696.19;5054514;28;20472;-65
2023/04/15 02:48:46;;;;;;;11.90;5.30;;;;;;;9.11;75.95;100702.19;5039138;28;20405;-65
2023/04/15 02:51:20;;;;;;;13.90;5.10;;;;;;;9.11;76.22;100699.47;5035261;28;20053;-65
2023/04/15 02:53:49;;;;;;;10.25;5.25;;;;;;;9.03;76.36;100699.97;5019421;28;20049;-65
2023/04/15 02:56:18;;;;;;;11.02;5.50;;;;;;;8.96;76.65;100711.84;5054134;28;20052;-64
2023/04/15 02:58:49;;;;;;;17.48;5.68;;;;;;;8.92;77.21;100708.03;5053908;28;20401;-64
2023/04/15 03:01:19;;;;;;;8.18;4.28;;;;;;;8.84;77.58;100704.97;5007739;28;20046;-65
2023/04/15 03:03:48;;;;;;;11.10;5.13;;;;;;;8.74;78.45;100711.16;5034483;28;20500;-65
2023/04/15 03:06:17;;;;;;;12.77;5.22;;;;;;;8.67;78.64;100705.09;5034864;28;20045;-65
2023/04/15 03:08:46;;;;;;;9.73;4.82;;;;;;;8.53;79.84;100700.09;5043093;28;20049;-64
2023/04/15 03:11:16;;;;;;;8.95;4.85;;;;;;;8.51;80.58;100707.69;5048580;28;20049;-65
2023/04/15 03:13:46;;;;;;;10.95;5.00;;;;;;;8.50;80.99;100705.22;5017411;28;20046;-65
2023/04/15 03:16:26;;;;;;;9.18;4.60;;;;;;;8.53;80.86;100712.84;5033654;28;20053;-65
2023/04/15 03:18:55;;;;;;;12.20;5.18;;;;;;;8.52;80.81;100708.50;5035463;28;20045;-66
2023/04/15 03:21:25;;;;;;;9.07;5.25;;;;;;;8.49;80.61;100709.84;5053771;28;20052;-64
2023/04/15 03:23:55;;;;;;;12.48;5.13;;;;;;;8.45;81.13;100714.13;5053490;28;20071;-65
2023/04/15 03:26:29;;;;;;;8.85;4.63;;;;;;;8.45;81.79;100716.84;5042401;28;20041;-65
2023/04/15 03:29:02;;;;;;;9.57;5.00;;;;;;;8.46;81.72;100717.66;5017761;28;20050;-64
2023/04/15 03:31:31;;;;;;;7.95;4.90;;;;;;;8.38;82.38;100718.91;5034524;28;20432;-65
2023/04/15 03:34:00;;;;;;;9.57;4.93;;;;;;;8.36;82.57;100721.06;5054677;28;20068;-65
2023/04/15 03:36:31;;;;;;;11.25;5.10;;;;;;;8.25;83.03;100720.16;5053958;28;20045;-65
2023/04/15 03:39:03;;;;;;;11.93;5.20;;;;;;;8.29;83.97;100720.44;5048802;28;20049;-64
2023/04/15 03:41:32;;;;;;;9.70;4.80;;;;;;;8.30;83.03;100727.53;5047446;28;20052;-65
2023/04/15 03:44:01;;;;;;;8.85;4.72;;;;;;;8.31;83.48;100723.72;5020271;28;20045;-64
2023/04/15 03:46:30;;;;;;;9.50;4.82;;;;;;;8.41;83.40;100717.63;5007187;28;20049;-65
2023/04/15 03:48:59;;;;;;;8.50;5.10;;;;;;;8.37;83.15;100720.00;5033089;28;20049;-64
2023/04/15 03:51:30;;;;;;;8.20;4.35;;;;;;;8.34;83.90;100728.63;5032848;28;20445;-65
2023/04/15 03:53:59;;;;;;;16.45;6.25;;;;;;;8.32;84.20;100730.78;5033030;28;20061;-65
2023/04/15 03:56:28;;;;;;;9.23;5.28;;;;;;;8.25;84.67;100731.00;5033748;28;20048;-65
2023/04/15 03:58:56;;;;;;;9.90;5.22;;;;;;;8.21;84.45;100734.47;5053324;28;20054;-65
2023/04/15 04:01:25;;;;;;;10.15;5.50;;;;;;;8.20;85.48;100738.25;5052382;28;20416;-66
2023/04/15 04:03:54;;;;;;;10.45;5.20;;;;;;;8.21;85.06;100750.75;5040879;28;20041;-65
2023/04/15 04:06:24;;;;;;;9.25;5.45;;;;;;;8.18;85.95;100751.25;5032848;28;20429;-65
2023/04/15 04:08:52;;;;;;;11.70;5.60;;;;;;;8.16;85.67;100754.25;5032507;28;20060;-65
2023/04/15 04:11:21;;;;;;;7.28;4.40;;;;;;;8.13;86.40;100759.34;5044674;28;20048;-65
2023/04/15 04:13:50;;;;;;;10.23;5.30;;;;;;;8.21;85.73;100756.19;5033223;28;20042;-65
2023/04/15 04:16:19;;;;;;;8.70;5.00;;;;;;;8.14;86.79;100761.81;5033363;28;20512;-63
2023/04/15 04:18:49;;;;;;;9.07;5.22;;;;;;;8.08;87.54;100763.66;5032483;28;20060;-64
2023/04/15 04:21:18;;;;;;;7.88;4.68;;;;;;;8.10;87.38;100771.53;5035999;28;20053;-65
2023/04/15 04:23:47;;;;;;;11.07;5.35;;;;;;;8.16;86.80;100775.13;5048424;28;20060;-62
2023/04/15 04:26:15;;;;;;;10.68;4.85;;;;;;;8.08;87.90;100777.22;5050872;28;20068;-59
2023/04/15 04:28:44;;;;;;;11.73;6.10;;;;;;;8.03;87.93;100781.75;5051239;28;20049;-64
2023/04/15 04:31:13;;;;;;;8.98;5.60;;;;;;;8.00;88.66;100777.66;5035175;28;20055;-64
2023/04/15 04:33:42;;;;;;;10.73;5.45;;;;;;;7.97;89.21;100780.88;5043683;28;20044;-57
2023/04/15 04:36:11;;;;;;;8.95;5.40;;;;;;;7.99;89.52;100794.19;5047853;28;20056;-61
2023/04/15 04:38:40;;;;;;;10.32;5.97;;;;;;;7.96;89.43;100791.97;5043940;28;20079;-64
2023/04/15 04:41:09;;;;;;;8.90;5.80;;;;;;;7.99;89.98;100797.72;5032862;28;20048;-62
2023/04/15 04:43:38;;;;;;;10.30;6.18;;;;;;;7.99;89.52;100796.91;5032536;28;20045;-64
2023/04/15 04:46:07;;;;;;;9.23;5.60;;;;;;;7.94;89.86;100800.38;5033004;28;20049;-65
2023/04/15 04:48:37;;;;;;;10.50;5.57;;;;;;;7.98;90.31;100806.09;5033021;28;20785;-66
2023/04/15 04:51:07;;;;;;;10.07;6.25;;;;;;;7.98;89.80;100811.53;5037986;28;20048;-64
2023/04/15 04:53:36;;;;;;;9.95;5.70;;;;;;;7.98;90.67;100817.75;5045642;28;20079;-64
2023/04/15 04:56:05;;;;;;;9.50;5.85;;;;;;;7.98;89.95;100812.34;5039667;28;20050;-64
2023/04/15 04:58:34;;;;;;;10.05;6.10;;;;;;;7.86;90.92;100814.34;5039820;28;20429;-64
2023/04/15 05:01:03;;;;;;;10.65;5.95;;;;;;;7.74;91.77;100821.78;5056534;28;20083;-65
2023/04/15 05:03:32;;;;;;;12.02;6.25;;;;;;;7.78;92.33;100828.34;5042856;28;20029;-65
2023/04/15 05:06:04;;;;;;;8.05;5.35;;;;;;;7.76;91.60;100827.78;5038020;28;20045;-64
2023/04/15 05:08:34;;;;;;;10.20;5.57;;;;;;;7.75;92.26;100840.53;5037458;28;20048;-65
2023/04/15 05:11:03;;;;;;;8.98;5.68;;;;;;;7.84;91.68;100838.19;5041395;28;20044;-65
2023/04/15 05:13:32;;;;;;;10.38;6.20;;;;;;;7.89;91.64;100838.28;5045052;28;20053;-64
2023/04/15 05:16:01;;;;;;;11.98;6.07;;;;;;;7.85;91.71;100847.97;5040195;28;20060;-64
2023/04/15 05:18:30;;;;;;;10.90;6.22;;;;;;;7.73;92.35;100852.69;5040261;28;20397;-64
2023/04/15 05:20:59;;;;;;;10.68;5.90;;;;;;;7.61;93.25;100850.88;5042423;28;20058;-63
2023/04/15 05:23:28;;;;;;;8.77;5.78;;;;;;;7.57;94.19;100852.44;5040387;28;20049;-66
2023/04/15 05:25:57;;;;;;;10.23;5.95;;;;;;;7.63;93.79;100859.59;5059576;28;20053;-65
2023/04/15 05:28:26;;;;;;;11.48;5.80;;;;;;;7.66;94.91;100861.81;5059950;28;20492;-64
2023/04/15 05:30:55;;;;;;;10.90;6.05;;;;;;;7.74;94.47;100865.16;5059816;28;20053;-64
2023/04/15 05:33:24;;;;;;;10.45;5.93;;;;;;;7.84;93.32;100870.72;5048670;28;20037;-65
2023/04/15 05:35:53;;;;;;;10.85;5.70;;;;;;;7.88;93.08;100874.59;5043475;28;20056;-65
2023/04/15 05:38:22;;;;;;;9.85;5.50;;;;;;;7.81;93.54;100880.19;5039918;28;20052;-64
2023/04/15 05:40:51;;;;;;;9.20;5.93;;;;;;;7.72;93.63;100880.84;5039182;28;20409;-65
2023/04/15 05:43:20;;;;;;;8.07;5.55;;;;;;;7.62;95.48;100892.38;5039960;28;20065;-64
2023/04/15 05:45:49;;;;;;;8.70;5.82;;;;;;;7.69;94.79;100899.25;5091674;28;20056;-64
2023/04/15 05:48:18;;;;;;;9.25;6.20;;;;;;;7.76;94.23;100896.38;5057986;28;20045;-64
2023/04/15 05:50:47;;;;;;;10.35;6.70;;;;;;;7.74;94.10;100903.94;5059402;28;20048;-64
2023/04/15 05:53:16;;;;;;;10.88;6.90;;;;;;;7.73;94.88;100891.47;5043567;28;20061;-64
2023/04/15 05:55:45;;;;;;;10.48;6.35;;;;;;;7.80;94.62;100902.16;5039472;28;20057;-64
2023/04/15 05:58:13;;;;;;;7.97;5.72;;;;;;;7.77;94.32;100913.47;5039871;28;20041;-64
2023/04/15 06:00:45;;;;;;;14.13;7.13;;;;;;;7.81;94.68;100911.94;4383781;28;10003462;-66
2023/04/15 06:03:14;;;;;;;10.35;6.70;;;;;;;7.80;94.33;100913.00;5043370;28;20264;-65
2023/04/15 06:05:43;;;;;;;9.95;6.05;;;;;;;7.75;95.59;100921.06;5052374;28;20060;-64
2023/04/15 06:08:13;;;;;;;11.35;6.72;;;;;;;7.73;95.90;100923.19;5052737;28;20054;-65
2023/04/15 06:10:42;;;;;;;9.50;6.38;;;;;;;7.68;95.49;100927.47;5041408;28;20053;-65
2023/04/15 06:13:11;;;;;;;10.00;6.47;;;;;;;7.75;95.99;100934.63;5032355;28;20054;-65
2023/04/15 06:15:41;;;;;;;10.52;5.95;;;;;;;7.74;96.35;100938.38;5031545;28;20056;-65
2023/04/15 06:18:10;;;;;;;12.38;6.13;;;;;;;7.76;96.00;100947.09;5032657;28;20523;-65
2023/04/15 06:20:40;;;;;;;10.02;6.43;;;;;;;7.77;96.78;100952.31;5034255;28;20099;-65
2023/04/15 06:23:09;;;;;;;10.25;6.50;;;;;;;7.79;96.74;100960.16;5052950;28;20045;-65
2023/04/15 06:25:38;;;;;;;9.70;6.05;;;;;;;7.85;96.09;100965.44;5052334;28;20052;-65
2023/04/15 06:28:07;;;;;;;11.57;6.78;;;;;;;7.83;95.66;100966.75;5052167;28;20049;-65
2023/04/15 06:30:37;;;;;;;10.25;6.45;;;;;;;7.77;97.02;100968.56;5050233;28;20053;-65
2023/04/15 06:33:06;;;;;;;12.52;6.82;;;;;;;7.80;96.70;100972.69;5038385;28;20068;-66
2023/04/15 06:35:36;;;;;;;11.55;6.18;;;;;;;7.80;96.50;100978.09;5050486;28;20053;-66
2023/04/15 06:38:05;;;;;;;10.75;6.82;;;;;;;7.83;97.26;100981.13;5051675;28;20120;-65
2023/04/15 06:40:34;;;;;;;10.02;7.20;;;;;;;7.83;97.22;100994.69;5051000;28;20048;-64
2023/04/15 06:43:03;;;;;;;11.00;7.28;;;;;;;7.76;97.79;100998.66;5044912;28;20413;-64
2023/04/15 06:45:32;;;;;;;10.85;6.85;;;;;;;7.77;97.88;100994.84;5040487;28;20053;-66
2023/04/15 06:48:01;;;;;;;10.98;7.18;;;;;;;7.80;98.75;100994.38;5032060;28;20048;-65
2023/04/15 06:50:30;;;;;;;13.82;7.53;;;;;;;7.77;98.68;101006.53;5051508;28;20402;-64
2023/04/15 06:52:59;;;;;;;14.15;7.80;;;;;;;7.84;98.45;101006.38;5045924;28;20060;-64
2023/04/15 06:55:28;;;;;;;13.38;7.60;;;;;;;7.85;98.50;101010.75;5050637;28;20071;-65
2023/04/15 06:57:57;;;;;;;11.45;7.35;;;;;;;7.98;99.77;101013.13;5042307;28;20053;-64
2023/04/15 07:00:27;;;;;;;11.82;8.18;;;;;;;8.04;98.35;101017.56;5031122;28;20125;-64
2023/04/15 07:02:56;;;;;;;13.75;8.23;;;;;;;8.08;98.22;101017.88;5021453;28;20048;-64
2023/04/15 07:05:25;;;;;;;13.75;7.70;;;;;;;8.17;98.64;101029.97;5051762;28;20053;-65
2023/04/15 07:07:54;;;;;;;13.18;8.25;;;;;;;8.26;97.78;101036.66;5034166;28;20049;-65
2023/04/15 07:10:24;;;;;;;11.90;8.68;;;;;;;8.29;97.39;101033.44;5040688;28;20543;-65
2023/04/15 07:12:53;;;;;;;13.65;8.57;;;;;;;8.36;97.36;101044.13;5030013;28;20049;-64
2023/04/15 07:15:22;;;;;;;13.10;8.50;;;;;;;8.42;96.68;101035.03;5048705;28;20059;-63
2023/04/15 07:17:51;;;;;;;11.40;7.63;;;;;;;8.48;96.71;101044.06;5049614;28;20052;-66
2023/04/15 07:20:20;;;;;;;11.88;8.13;;;;;;;8.50;96.77;101052.81;5054825;28;20511;-66
2023/04/15 07:22:49;;;;;;;14.25;8.45;;;;;;;8.52;96.12;101045.22;5045555;28;20045;-65
2023/04/15 07:25:18;;;;;;;12.88;8.15;;;;;;;8.55;95.78;101065.63;5049499;28;20447;-64
2023/04/15 07:27:47;;;;;;;11.70;7.85;;;;;;;8.61;96.38;101072.78;5052831;28;20155;-64
2023/04/15 07:30:16;;;;;;;12.15;8.23;;;;;;;8.65;95.94;101071.22;5043974;28;20057;-66
2023/04/15 07:32:45;;;;;;;13.25;8.80;;;;;;;8.65;96.52;101066.59;5034124;28;20060;-65
2023/04/15 07:35:14;;;;;;;12.93;8.45;;;;;;;8.69;97.22;101073.19;5034791;28;20053;-66
2023/04/15 07:37:43;;;;;;;13.73;8.60;;;;;;;8.78;96.90;101079.03;5052635;28;20047;-64
2023/04/15 07:40:13;;;;;;;14.20;9.02;;;;;;;8.80;97.38;101079.56;5054608;28;20053;-64
2023/04/15 07:42:42;;;;;;;14.48;9.30;;;;;;;8.85;97.25;101087.81;5053631;28;20053;-65
2023/04/15 07:45:11;;;;;;;12.73;9.38;;;;;;;8.85;96.95;101087.81;5040985;28;20061;-65
2023/04/15 07:47:41;;;;;;;13.13;8.18;;;;;;;8.85;96.37;101090.53;5034847;28;20152;-65
2023/04/15 07:50:10;;;;;;;12.25;8.35;;;;;;;8.91;95.40;101094.97;5033171;28;20049;-65
2023/04/15 07:52:39;;;;;;;11.20;7.47;;;;;;;9.00;94.59;101083.69;5034569;28;20058;-65
2023/04/15 07:55:09;;;;;;;9.40;7.00;;;;;;;9.11;93.65;101096.31;5035070;28;20504;-64
2023/04/15 07:57:38;;;;;;;11.20;7.57;;;;;;;9.19;94.16;101093.19;5033414;28;20524;-64
2023/04/15 08:00:08;;;;;;;11.98;7.85;;;;;;;9.23;92.71;101099.72;5034495;28;20049;-64
2023/04/15 08:02:43;;;;;;;10.40;5.97;;;;;;;9.25;89.58;101100.31;5033306;28;20061;-65
2023/04/15 08:05:13;;;;;;;9.93;6.20;;;;;;;9.30;88.26;101115.88;5036150;28;20977;-65
2023/04/15 08:07:43;;;;;;;11.27;6.72;;;;;;;9.28;88.15;101115.28;5036065;28;20502;-66
2023/04/15 08:10:13;;;;;;;10.15;6.45;;;;;;;9.29;87.77;101109.63;5034860;28;20052;-65
2023/04/15 08:12:42;;;;;;;10.98;6.20;;;;;;;9.29;87.34;101120.50;5033873;28;20053;-64
2023/04/15 08:15:11;;;;;;;9.23;6.18;;;;;;;9.30;88.29;101119.41;5035337;28;20057;-63
2023/04/15 08:17:40;;;;;;;9.68;6.05;;;;;;;9.32;87.57;101114.53;5034949;28;20050;-63
2023/04/15 08:20:10;;;;;;;8.88;5.55;;;;;;;9.36;86.88;101121.13;5036047;28;20057;-61
2023/04/15 08:22:39;;;;;;;8.90;5.53;;;;;;;9.26;85.23;101126.44;5034584;28;20049;-65
2023/04/15 08:25:09;;;;;;;8.25;5.60;;;;;;;9.27;85.80;101121.81;5034493;28;20117;-63
2023/04/15 08:27:38;;;;;;;9.10;5.95;;;;;;;9.28;85.73;101128.88;5033022;28;20046;-65
2023/04/15 08:30:07;;;;;;;8.48;5.60;;;;;;;9.32;87.00;101141.72;5061952;28;20045;-62
2023/04/15 08:32:36;;;;;;;10.00;5.82;;;;;;;9.32;85.23;101127.31;5046378;28;20061;-62
2023/04/15 08:35:06;;;;;;;8.52;5.95;;;;;;;9.28;84.65;101137.03;5046239;28;20049;-62
2023/04/15 08:37:35;;;;;;;9.20;5.82;;;;;;;9.32;85.62;101146.34;5042829;28;20053;-64
2023/04/15 08:40:05;;;;;;;9.93;6.10;;;;;;;9.36;85.38;101148.31;5045734;28;20052;-62
2023/04/15 08:42:42;;;;;;;10.40;6.20;;;;;;;9.36;85.56;101153.75;5079062;28;20053;-64
2023/04/15 08:45:12;;;;;;;10.75;7.20;;;;;;;9.28;84.92;101164.22;5036547;28;20041;-65
2023/04/15 08:47:42;;;;;;;9.80;6.57;;;;;;;9.25;85.35;101167.47;5035851;28;20046;-63
2023/04/15 08:50:12;;;;;;;11.32;6.90;;;;;;;9.25;85.06;101179.16;5033345;28;20053;-64
2023/04/15 08:52:41;;;;;;;11.10;6.68;;;;;;;9.27;85.01;101177.00;5041954;28;20466;-64
2023/04/15 08:55:10;;;;;;;13.48;6.55;;;;;;;9.34;85.10;101161.34;5059831;28;20041;-64
2023/04/15 08:57:39;;;;;;;10.90;6.45;;;;;;;9.39;85.16;101177.72;5002545;28;20046;-64
2023/04/15 09:00:09;;;;;;;9.25;6.20;;;;;;;9.46;85.19;101185.72;5049220;28;20488;-64
2023/04/15 09:02:38;;;;;;;11.40;6.80;;;;;;;9.53;84.98;101177.38;5050920;28;20055;-65
2023/04/15 09:05:08;;;;;;;10.93;6.55;;;;;;;9.62;85.70;101184.03;5053325;28;20053;-64
2023/04/15 09:07:37;;;;;;;11.00;6.45;;;;;;;9.65;84.52;101188.94;5033700;28;20075;-65
2023/04/15 09:10:06;;;;;;;10.30;5.75;;;;;;;9.68;83.65;101198.50;5034647;28;20429;-64
2023/04/15 09:12:36;;;;;;;10.88;6.28;;;;;;;9.71;81.59;101204.25;5032974;28;20049;-65
2023/04/15 09:15:06;;;;;;;10.23;6.28;;;;;;;9.70;81.54;101208.06;5034464;28;20075;-65
2023/04/15 09:17:36;;;;;;;11.88;6.18;;;;;;;9.76;81.36;101212.47;5051155;28;20052;-64
2023/04/15 09:20:13;;;;;;;9.77;6.10;;;;;;;9.82;80.82;101206.03;5030364;28;20060;-65
2023/04/15 09:22:45;;;;;;;11.43;6.07;;;;;;;9.87;82.45;101205.28;5033453;28;20507;-64
2023/04/15 09:25:23;;;;;;;9.85;6.28;;;;;;;9.96;82.40;101208.38;5031913;28;20452;-64
2023/04/15 09:27:55;;;;;;;10.82;6.38;;;;;;;10.03;82.06;101211.72;5032898;28;20050;-66
2023/04/15 09:30:25;;;;;;;11.50;5.80;;;;;;;10.09;81.12;101210.69;5046902;28;20046;-64
2023/04/15 09:32:58;;;;;;;11.13;5.82;;;;;;;10.19;80.00;101221.69;5051026;28;20120;-65
2023/04/15 09:35:27;;;;;;;10.65;5.95;;;;;;;10.15;78.87;101228.75;5036227;28;20063;-64
2023/04/15 09:38:04;;;;;;;8.35;5.40;;;;;;;10.15;79.08;101222.44;5050916;28;20485;-64
2023/04/15 09:40:32;;;;;;;9.48;5.55;;;;;;;10.14;79.69;101229.81;5042113;28;20474;-65
2023/04/15 09:43:03;;;;;;;10.77;5.28;;;;;;;10.17;78.61;101240.22;5035733;28;20049;-63
2023/04/15 09:45:34;;;;;;;11.48;6.35;;;;;;;10.17;79.39;101239.38;5034775;28;20485;-65
2023/04/15 09:48:25;;;;;;;10.15;5.72;;;;;;;10.19;79.50;101240.75;5015739;28;20057;-64
2023/04/15 09:50:59;;;;;;;8.13;5.43;;;;;;;10.26;80.01;101245.19;5015861;28;20124;-65
2023/04/15 09:53:28;;;;;;;8.23;4.90;;;;;;;10.28;78.72;101249.34;5019347;28;20061;-64
2023/04/15 09:56:01;;;;;;;8.45;4.70;;;;;;;10.29;78.21;101247.44;5035763;28;20548;-65
2023/04/15 09:58:35;;;;;;;4.90;3.60;;;;;;;10.27;76.84;101261.28;5049224;28;20048;-64
2023/04/15 10:01:06;;;;;;;5.95;3.72;;;;;;;10.27;75.94;101266.72;5016360;28;20042;-63
2023/04/15 10:03:36;;;;;;;5.20;3.40;;;;;;;10.33;75.64;101256.75;5028826;28;20057;-65
2023/04/15 10:06:05;;;;;;;6.15;3.95;;;;;;;10.37;75.08;101260.59;5037021;28;20049;-64
2023/04/15 10:08:34;;;;;;;6.63;3.80;;;;;;;10.43;76.43;101262.28;5050353;28;20057;-63
2023/04/15 10:11:04;;;;;;;5.78;3.78;;;;;;;10.47;75.73;101263.44;5054527;28;20052;-64
2023/04/15 10:13:35;;;;;;;8.38;3.97;;;;;;;10.58;76.15;101272.53;5018869;28;20056;-64
2023/04/15 10:16:11;;;;;;;5.10;3.60;;;;;;;10.53;74.69;101259.66;5035351;28;20060;-64
2023/04/15 10:18:43;;;;;;;5.22;3.42;;;;;;;10.59;76.06;101264.09;5041633;28;20045;-64
2023/04/15 10:21:15;;;;;;;5.78;3.75;;;;;;;10.66;74.62;101270.16;5055000;28;20049;-63
2023/04/15 10:23:47;;;;;;;5.63;3.55;;;;;;;10.70;73.99;101270.47;5024767;28;20044;-63
2023/04/15 10:26:17;;;;;;;4.78;2.97;;;;;;;10.70;71.94;101275.09;5046246;28;20493;-65
2023/04/15 10:28:47;;;;;;;5.97;3.25;;;;;;;10.66;72.08;101259.28;5057328;28;20049;-64
2023/04/15 10:31:17;;;;;;;6.47;3.45;;;;;;;10.64;72.70;101264.16;5057285;28;20049;-65
2023/04/15 10:33:48;;;;;;;4.25;3.20;;;;;;;10.71;73.62;101271.31;5042952;28;20045;-63
2023/04/15 10:36:19;;;;;;;4.25;3.00;;;;;;;10.75;75.14;101261.50;5035127;28;20072;-64
2023/04/15 10:38:48;;;;;;;6.15;3.20;;;;;;;10.82;74.59;101271.16;5035034;28;20048;-65
2023/04/15 10:41:29;;;;;;;5.95;3.40;;;;;;;10.95;74.48;101283.53;5034620;28;20084;-65
2023/04/15 10:44:03;;;;;;;6.50;3.25;;;;;;;10.98;72.58;101280.28;5050350;28;20060;-63
2023/04/15 10:46:37;;;;;;;5.93;3.03;;;;;;;10.99;73.31;101271.03;5051190;28;20045;-63
2023/04/15 10:49:19;;;;;;;4.65;2.95;;;;;;;11.03;71.81;101284.94;5050000;28;20485;-64
2023/04/15 10:51:52;;;;;;;3.88;2.90;;;;;;;11.04;71.06;101268.34;5050032;28;20042;-63
2023/04/15 10:54:24;;;;;;;5.25;3.08;;;;;;;11.06;71.42;101273.50;5018353;28;20076;-63
2023/04/15 10:57:21;;;;;;;7.80;3.20;;;;;;;11.20;72.34;101290.25;5042750;28;20106;-64
2023/04/15 11:00:09;;;;;;;;;;;;;;;11.24;71.58;101280.50;5048535;28;20412;-62
2023/04/15 11:02:52;;;;;;;4.63;3.25;;;;;;;11.40;72.22;101289.59;5015589;28;19921;-64
2023/04/15 11:05:40;;;;;;;5.43;3.45;;;;;;;11.36;74.87;101292.03;5027222;28;20045;-65
2023/04/15 11:08:12;;;;;;;6.15;3.50;;;;;;;11.39;73.55;101288.78;5046058;28;20049;-64
2023/04/15 11:10:41;;;;;;;7.50;3.13;;;;;;;11.45;71.56;101286.91;5033881;28;20060;-64
2023/04/15 11:13:10;;;;;;;7.55;3.10;;;;;;;11.59;71.98;101290.00;5035491;28;20420;-64
2023/04/15 11:15:41;;;;;;;6.13;2.85;;;;;;;11.58;68.66;101286.44;5017563;28;20042;-64
2023/04/15 11:18:13;;;;;;;4.93;2.50;;;;;;;11.59;69.09;101292.72;5042073;28;20041;-64
2023/04/15 11:20:46;;;;;;;3.15;2.42;;;;;;;11.60;70.49;101294.38;5049588;28;20036;-65
2023/04/15 11:23:19;;;;;;;4.57;3.00;;;;;;;11.63;71.45;101283.75;5033496;28;20041;-64
2023/04/15 11:25:50;;;;;;;3.92;2.70;;;;;;;11.65;70.00;101291.69;5017453;28;20046;-64
2023/04/15 11:28:19;;;;;;;4.75;2.90;;;;;;;11.62;67.99;101286.75;5037747;28;20041;-65
2023/04/15 11:30:48;;;;;;;3.80;2.90;;;;;;;11.59;69.05;101304.44;5038113;28;20052;-64
2023/04/15 11:33:17;;;;;;;6.25;3.10;;;;;;;11.57;70.12;101311.25;5018860;28;20512;-64
2023/04/15 11:35:46;;;;;;;5.35;3.47;;;;;;;11.50;71.13;101316.97;5035584;28;20053;-65
2023/04/15 11:38:15;;;;;;;5.65;3.30;;;;;;;11.41;70.97;101308.44;5035317;28;20049;-64
2023/04/15 11:40:44;;;;;;;5.95;3.75;;;;;;;11.43;72.12;101317.19;5017492;28;20062;-63